createdAt,value
2022-08-09T00:01:54.893Z,18.71
2022-08-09T00:04:34.314Z,18.65
2022-08-09T00:07:10.741Z,18.60
2022-08-09T00:09:40.911Z,18.56
2022-08-09T00:12:22.513Z,18.54
2022-08-09T00:14:55.895Z,18.53
2022-08-09T00:18:07.585Z,18.48
2022-08-09T00:20:17.142Z,18.49
2022-08-09T00:22:49.843Z,18.45
2022-08-09T00:25:23.370Z,18.38
2022-08-09T00:28:04.155Z,18.39
2022-08-09T00:30:34.225Z,18.32
2022-08-09T00:33:04.096Z,18.34
2022-08-09T00:35:43.011Z,18.31
2022-08-09T00:38:16.159Z,18.28
2022-08-09T00:40:53.271Z,18.27
2022-08-09T00:44:14.580Z,18.25
2022-08-09T00:46:14.553Z,18.22
2022-08-09T00:49:04.013Z,18.17
2022-08-09T00:51:42.572Z,18.14
2022-08-09T00:54:19.368Z,18.10
2022-08-09T00:56:49.524Z,18.07
2022-08-09T00:59:41.693Z,18.06
2022-08-09T01:02:10.202Z,18.06
2022-08-09T01:04:51.020Z,18.02
2022-08-09T01:07:37.995Z,18.02
2022-08-09T01:10:23.359Z,17.93
2022-08-09T01:13:02.621Z,17.90
2022-08-09T01:15:40.814Z,17.89
2022-08-09T01:18:14.437Z,17.89
2022-08-09T01:20:49.756Z,17.85
2022-08-09T01:24:02.043Z,17.80
2022-08-09T01:26:41.705Z,17.84
2022-08-09T01:29:13.200Z,17.78
2022-08-09T01:32:31.187Z,17.78
2022-08-09T01:34:37.707Z,17.73
2022-08-09T01:37:09.302Z,17.73
2022-08-09T01:39:40.010Z,17.71
2022-08-09T01:42:12.546Z,17.68
2022-08-09T01:44:43.076Z,17.68
2022-08-09T01:47:13.413Z,17.55
2022-08-09T01:49:54.514Z,17.56
2022-08-09T01:52:25.287Z,17.54
2022-08-09T01:54:59.305Z,17.55
2022-08-09T01:57:40.097Z,17.52
2022-08-09T02:00:34.675Z,17.54
2022-08-09T02:03:11.370Z,17.51
2022-08-09T02:06:03.642Z,17.48
2022-08-09T02:08:41.255Z,17.47
2022-08-09T02:11:24.736Z,17.44
2022-08-09T02:14:25.660Z,17.44
2022-08-09T02:17:14.773Z,17.34
2022-08-09T02:19:47.628Z,17.32
2022-08-09T02:22:38.079Z,17.32
2022-08-09T02:25:17.036Z,17.26
2022-08-09T02:28:00.601Z,17.26
2022-08-09T02:30:41.522Z,17.25
2022-08-09T02:33:14.235Z,17.22
2022-08-09T02:36:02.838Z,17.19
2022-08-09T02:38:38.033Z,17.16
2022-08-09T02:41:12.408Z,17.16
2022-08-09T02:43:54.643Z,17.15
2022-08-09T02:46:29.835Z,17.10
2022-08-09T02:49:02.829Z,17.06
2022-08-09T02:51:40.245Z,17.04
2022-08-09T02:54:13.974Z,17.01
2022-08-09T02:56:51.287Z,16.98
2022-08-09T02:59:36.703Z,16.94
2022-08-09T03:02:17.069Z,16.90
2022-08-09T03:04:50.774Z,16.87
2022-08-09T03:07:21.482Z,16.84
2022-08-09T03:09:54.410Z,16.83
2022-08-09T03:12:27.510Z,16.77
2022-08-09T03:14:58.638Z,16.76
2022-08-09T03:17:31.645Z,16.77
2022-08-09T03:20:11.059Z,16.75
2022-08-09T03:22:44.705Z,16.71
2022-08-09T03:25:26.775Z,16.73
2022-08-09T03:28:26.206Z,16.70
2022-08-09T03:30:57.137Z,16.66
2022-08-09T03:33:54.176Z,16.63
2022-08-09T03:36:19.419Z,16.57
2022-08-09T03:38:50.796Z,16.57
2022-08-09T03:41:20.513Z,16.56
2022-08-09T03:44:07.784Z,16.56
2022-08-09T03:46:39.105Z,16.54
2022-08-09T03:49:11.789Z,16.50
2022-08-09T03:51:58.143Z,16.46
2022-08-09T03:54:34.515Z,16.44
2022-08-09T03:57:17.916Z,16.40
2022-08-09T03:59:54.265Z,16.39
2022-08-09T04:02:28.347Z,16.32
2022-08-09T04:05:06.433Z,16.29
2022-08-09T04:07:53.294Z,16.28
2022-08-09T04:10:29.400Z,16.22
2022-08-09T04:13:04.040Z,16.23
2022-08-09T04:15:52.502Z,16.22
2022-08-09T04:18:24.982Z,16.20
2022-08-09T04:20:57.640Z,16.17
2022-08-09T04:23:27.472Z,16.17
2022-08-09T04:25:58.013Z,16.16
2022-08-09T04:28:34.241Z,16.08
2022-08-09T04:31:08.120Z,16.10
2022-08-09T04:33:51.981Z,16.10
2022-08-09T04:36:28.091Z,16.13
2022-08-09T04:39:00.032Z,16.10
2022-08-09T04:41:33.240Z,16.14
2022-08-09T04:44:06.076Z,16.14
2022-08-09T04:46:58.314Z,16.17
2022-08-09T04:49:55.070Z,16.16
2022-08-09T04:52:27.546Z,16.12
2022-08-09T04:54:57.999Z,16.13
2022-08-09T04:57:59.070Z,16.10
2022-08-09T05:00:18.629Z,16.08
2022-08-09T05:02:48.616Z,16.12
2022-08-09T05:05:31.810Z,16.09
2022-08-09T05:08:15.582Z,16.09
2022-08-09T05:10:47.599Z,16.09
2022-08-09T05:13:17.311Z,16.10
2022-08-09T05:15:52.071Z,16.13
2022-08-09T05:18:39.912Z,16.12
2022-08-09T05:21:19.934Z,16.00
2022-08-09T05:24:01.008Z,15.97
2022-08-09T05:26:37.091Z,16.00
2022-08-09T05:29:21.864Z,16.07
2022-08-09T05:31:58.426Z,16.06
2022-08-09T05:34:31.142Z,16.08
2022-08-09T05:37:06.182Z,16.07
2022-08-09T05:39:43.602Z,16.11
2022-08-09T05:42:17.409Z,16.07
2022-08-09T05:44:51.724Z,16.09
2022-08-09T05:47:22.861Z,16.12
2022-08-09T05:50:30.349Z,16.16
2022-08-09T05:52:43.323Z,16.09
2022-08-09T05:55:20.377Z,16.10
2022-08-09T05:57:56.682Z,16.08
2022-08-09T06:00:29.071Z,16.07
2022-08-09T06:02:59.499Z,16.16
2022-08-09T06:05:31.371Z,16.15
2022-08-09T06:08:24.617Z,16.18
2022-08-09T06:10:59.148Z,16.23
2022-08-09T06:13:33.944Z,16.31
2022-08-09T06:16:04.840Z,16.37
2022-08-09T06:18:35.428Z,16.42
2022-08-09T06:21:08.093Z,16.45
2022-08-09T06:23:57.962Z,16.45
2022-08-09T06:26:30.292Z,16.56
2022-08-09T06:29:04.955Z,16.67
2022-08-09T06:31:40.315Z,16.66
2022-08-09T06:34:26.278Z,16.72
2022-08-09T06:37:00.146Z,16.78
2022-08-09T06:39:49.086Z,16.83
2022-08-09T06:42:24.955Z,16.95
2022-08-09T06:44:58.965Z,16.93
2022-08-09T06:47:39.815Z,17.09
2022-08-09T06:50:16.688Z,17.18
2022-08-09T06:52:49.119Z,17.29
2022-08-09T06:55:22.435Z,17.34
2022-08-09T06:58:03.159Z,17.40
2022-08-09T07:00:51.955Z,17.47
2022-08-09T07:03:27.605Z,17.57
2022-08-09T07:06:03.771Z,17.67
2022-08-09T07:08:37.355Z,17.74
2022-08-09T07:11:12.598Z,17.84
2022-08-09T07:14:04.880Z,17.94
2022-08-09T07:16:43.303Z,18.07
2022-08-09T07:19:18.492Z,18.17
2022-08-09T07:21:57.638Z,18.23
2022-08-09T07:24:32.128Z,18.30
2022-08-09T07:27:26.718Z,18.36
2022-08-09T07:30:03.809Z,18.50
2022-08-09T07:32:35.437Z,18.61
2022-08-09T07:35:08.146Z,18.79
2022-08-09T07:37:44.068Z,18.88
2022-08-09T07:40:17.693Z,18.98
2022-08-09T07:42:55.955Z,19.12
2022-08-09T07:45:39.787Z,19.25
2022-08-09T07:48:25.229Z,19.38
2022-08-09T07:51:10.372Z,19.59
2022-08-09T07:54:06.183Z,19.77
2022-08-09T07:56:44.961Z,19.98
2022-08-09T07:59:34.267Z,20.08
2022-08-09T08:02:19.096Z,20.28
2022-08-09T08:04:53.510Z,20.46
2022-08-09T08:08:43.469Z,20.65
2022-08-09T08:10:13.523Z,20.84
2022-08-09T08:12:45.616Z,20.99
2022-08-09T08:15:24.315Z,21.14
2022-08-09T08:17:58.670Z,21.22
2022-08-09T08:20:32.280Z,21.39
2022-08-09T08:23:16.086Z,21.56
2022-08-09T08:25:50.374Z,21.71
2022-08-09T08:28:35.896Z,21.91
2022-08-09T08:31:13.871Z,22.05
2022-08-09T08:33:53.138Z,22.22
2022-08-09T08:36:29.494Z,22.38
2022-08-09T08:39:00.768Z,22.47
2022-08-09T08:41:51.169Z,22.58
2022-08-09T08:44:27.505Z,22.73
2022-08-09T08:47:05.013Z,22.88
2022-08-09T08:49:48.520Z,23.03
2022-08-09T08:55:19.067Z,23.35
2022-08-09T08:57:56.141Z,23.43
2022-08-09T09:00:30.022Z,23.57
2022-08-09T09:03:08.720Z,23.64
2022-08-09T09:05:58.437Z,23.83
2022-08-09T09:08:37.611Z,23.96
2022-08-09T09:11:13.613Z,24.02
2022-08-09T09:13:56.282Z,24.11
2022-08-09T09:16:30.693Z,24.26
2022-08-09T09:19:22.740Z,24.34
2022-08-09T09:22:07.695Z,24.50
2022-08-09T09:24:43.403Z,24.58
2022-08-09T09:27:22.119Z,24.63
2022-08-09T09:30:38.266Z,24.77
2022-08-09T09:33:15.912Z,24.84
2022-08-09T09:36:01.703Z,24.95
2022-08-09T09:38:49.245Z,25.04
2022-08-09T09:41:48.740Z,25.08
2022-08-09T09:44:31.635Z,25.21
2022-08-09T09:47:10.113Z,25.26
2022-08-09T09:50:07.195Z,25.33
2022-08-09T09:52:57.373Z,25.42
2022-08-09T09:55:32.944Z,25.55
2022-08-09T09:58:16.469Z,25.64
2022-08-09T10:00:54.059Z,25.70
2022-08-09T10:03:58.065Z,25.79
2022-08-09T10:06:32.134Z,25.79
2022-08-09T10:09:21.544Z,25.85
2022-08-09T10:12:12.506Z,25.90
2022-08-09T10:14:51.303Z,26.00
2022-08-09T10:17:50.307Z,26.08
2022-08-09T10:20:33.083Z,26.17
2022-08-09T10:23:20.384Z,26.26
2022-08-09T10:26:06.881Z,26.30
2022-08-09T10:28:49.075Z,26.39
2022-08-09T10:32:35.728Z,26.41
2022-08-09T10:34:33.474Z,26.45
2022-08-09T10:37:04.484Z,26.55
2022-08-09T10:39:40.542Z,26.62
2022-08-09T10:42:18.985Z,26.65
2022-08-09T10:44:57.493Z,26.75
2022-08-09T10:48:26.218Z,26.77
2022-08-09T10:50:51.920Z,26.83
2022-08-09T10:53:46.569Z,26.90
2022-08-09T10:56:23.323Z,26.94
2022-08-09T10:58:54.020Z,26.99
2022-08-09T11:03:13.708Z,27.04
2022-08-09T11:04:35.368Z,27.08
2022-08-09T11:07:55.063Z,27.03
2022-08-09T11:10:54.792Z,27.09
2022-08-09T11:13:50.743Z,27.12
2022-08-09T11:16:50.969Z,27.16
2022-08-09T11:20:19.785Z,27.26
2022-08-09T11:23:02.852Z,27.28
2022-08-09T11:25:47.200Z,27.34
2022-08-09T11:28:56.186Z,27.38
2022-08-09T11:31:52.872Z,27.38
2022-08-09T11:34:42.842Z,27.47
2022-08-09T11:37:18.222Z,27.51
2022-08-09T11:40:04.233Z,27.56
2022-08-09T11:42:46.952Z,27.61
2022-08-09T11:45:42.220Z,27.67
2022-08-09T11:48:26.579Z,27.69
2022-08-09T11:53:00.786Z,27.77
2022-08-09T11:54:28.983Z,27.82
2022-08-09T11:57:47.649Z,27.89
2022-08-09T12:00:27.837Z,27.95
2022-08-09T12:02:59.179Z,28.04
2022-08-09T12:05:39.882Z,28.10
2022-08-09T12:08:21.679Z,28.11
2022-08-09T12:10:53.841Z,28.15
2022-08-09T12:14:07.397Z,28.18
2022-08-09T12:16:37.813Z,28.23
2022-08-09T12:19:12.126Z,28.24
2022-08-09T12:21:50.243Z,28.24
2022-08-09T12:24:24.927Z,28.25
2022-08-09T12:29:10.174Z,28.25
2022-08-09T12:30:02.116Z,28.30
2022-08-09T12:32:48.740Z,28.32
2022-08-09T12:35:21.689Z,28.36
2022-08-09T12:37:54.463Z,28.38
2022-08-09T12:40:27.271Z,28.39
2022-08-09T12:42:57.704Z,28.41
2022-08-09T12:45:34.899Z,28.46
2022-08-09T12:48:19.898Z,28.48
2022-08-09T12:50:58.437Z,28.48
2022-08-09T12:53:38.672Z,28.51
2022-08-09T12:56:39.259Z,28.55
2022-08-09T12:59:10.959Z,28.53
2022-08-09T13:01:48.730Z,28.56
2022-08-09T13:04:36.894Z,28.57
2022-08-09T13:07:16.581Z,28.62
2022-08-09T13:09:55.412Z,28.62
2022-08-09T13:12:30.758Z,28.67
2022-08-09T13:15:08.044Z,28.68
2022-08-09T13:18:02.655Z,28.73
2022-08-09T13:22:33.035Z,28.76
2022-08-09T13:24:44.697Z,28.85
2022-08-09T13:26:42.209Z,28.81
2022-08-09T13:29:14.108Z,28.76
2022-08-09T13:32:16.212Z,28.69
2022-08-09T13:34:52.083Z,28.67
2022-08-09T13:37:50.427Z,28.72
2022-08-09T13:41:50.813Z,28.70
2022-08-09T13:43:09.565Z,28.73
2022-08-09T13:46:42.556Z,28.76
2022-08-09T13:48:30.024Z,28.83
2022-08-09T13:50:59.852Z,28.83
2022-08-09T13:53:41.444Z,28.85
2022-08-09T13:56:14.199Z,28.86
2022-08-09T13:58:46.646Z,28.86
2022-08-09T14:01:56.253Z,28.89
2022-08-09T14:04:11.502Z,28.94
2022-08-09T14:06:43.855Z,29.00
2022-08-09T14:09:16.393Z,29.04
2022-08-09T14:11:47.237Z,29.05
2022-08-09T14:14:26.819Z,29.02
2022-08-09T14:16:58.614Z,29.04
2022-08-09T14:19:33.363Z,29.00
2022-08-09T14:22:03.707Z,28.96
2022-08-09T14:24:33.625Z,28.87
2022-08-09T14:27:03.579Z,28.86
2022-08-09T14:30:34.593Z,28.90
2022-08-09T14:32:43.028Z,28.90
2022-08-09T14:35:14.240Z,28.90
2022-08-09T14:38:02.433Z,28.90
2022-08-09T14:41:00.606Z,28.93
2022-08-09T14:43:23.571Z,28.96
2022-08-09T14:46:51.265Z,28.98
2022-08-09T14:48:45.587Z,29.02
2022-08-09T14:51:15.257Z,28.95
2022-08-09T14:53:48.684Z,28.92
2022-08-09T14:56:22.491Z,28.93
2022-08-09T14:58:57.862Z,28.92
2022-08-09T15:01:30.327Z,28.92
2022-08-09T15:04:00.328Z,28.88
2022-08-09T15:06:31.317Z,28.88
2022-08-09T15:09:01.357Z,28.89
2022-08-09T15:11:31.069Z,28.90
2022-08-09T15:14:04.814Z,28.89
2022-08-09T15:16:45.941Z,28.89
2022-08-09T15:19:19.966Z,28.91
2022-08-09T15:21:55.328Z,28.94
2022-08-09T15:24:29.749Z,28.96
2022-08-09T15:26:59.837Z,28.97
2022-08-09T15:30:58.561Z,28.95
2022-08-09T15:32:29.059Z,28.91
2022-08-09T15:35:01.049Z,28.95
2022-08-09T15:37:56.773Z,28.95
2022-08-09T15:40:32.297Z,28.94
2022-08-09T15:43:03.593Z,28.91
2022-08-09T15:46:02.844Z,28.90
2022-08-09T15:48:29.484Z,28.88
2022-08-09T15:51:02.225Z,28.86
2022-08-09T15:54:06.894Z,28.83
2022-08-09T15:56:41.505Z,28.82
2022-08-09T15:59:14.335Z,28.82
2022-08-09T16:01:44.042Z,28.80
2022-08-09T16:04:16.415Z,28.81
2022-08-09T16:06:52.785Z,28.74
2022-08-09T16:09:32.492Z,28.75
2022-08-09T16:12:13.672Z,28.76
2022-08-09T16:14:45.881Z,28.69
2022-08-09T16:17:17.005Z,28.68
2022-08-09T16:20:04.166Z,28.70
2022-08-09T16:22:42.055Z,28.72
2022-08-09T16:25:14.359Z,28.68
2022-08-09T16:27:47.931Z,28.68
2022-08-09T16:30:28.492Z,28.65
2022-08-09T16:33:11.608Z,28.61
2022-08-09T16:35:57.078Z,28.57
2022-08-09T16:38:29.851Z,28.53
2022-08-09T16:41:04.039Z,28.55
2022-08-09T16:43:34.236Z,28.49
2022-08-09T16:46:10.848Z,28.45
2022-08-09T16:48:54.052Z,28.42
2022-08-09T16:51:35.258Z,28.44
2022-08-09T16:54:25.950Z,28.40
2022-08-09T16:56:54.927Z,28.40
2022-08-09T16:59:26.217Z,28.38
2022-08-09T17:02:04.468Z,28.37
2022-08-09T17:04:35.262Z,28.33
2022-08-09T17:08:45.395Z,28.30
2022-08-09T17:10:04.040Z,28.28
2022-08-09T17:12:34.081Z,28.27
2022-08-09T17:15:17.954Z,28.23
2022-08-09T17:18:00.458Z,28.19
2022-08-09T17:20:35.235Z,28.16
2022-08-09T17:23:14.786Z,28.15
2022-08-09T17:25:44.988Z,28.14
2022-08-09T17:28:22.644Z,28.14
2022-08-09T17:30:53.107Z,28.11
2022-08-09T17:33:23.377Z,28.09
2022-08-09T17:35:53.620Z,28.02
2022-08-09T17:38:34.109Z,27.99
2022-08-09T17:41:08.479Z,27.93
2022-08-09T17:43:38.530Z,27.92
2022-08-09T17:46:10.124Z,28.06
2022-08-09T17:48:52.308Z,28.09
2022-08-09T17:51:23.204Z,28.08
2022-08-09T17:53:56.423Z,28.03
2022-08-09T17:56:29.251Z,27.97
2022-08-09T17:59:09.415Z,27.95
2022-08-09T18:02:06.573Z,27.89
2022-08-09T18:04:31.737Z,27.83
2022-08-09T18:07:04.610Z,27.78
2022-08-09T18:09:41.588Z,27.71
2022-08-09T18:12:15.343Z,27.69
2022-08-09T18:14:53.692Z,27.66
2022-08-09T18:17:27.287Z,27.60
2022-08-09T18:20:55.073Z,27.52
2022-08-09T18:23:07.412Z,27.46
2022-08-09T18:25:50.869Z,27.36
2022-08-09T18:30:35.239Z,27.29
2022-08-09T18:31:15.401Z,27.22
2022-08-09T18:33:54.932Z,27.17
2022-08-09T18:36:25.559Z,27.09
2022-08-09T18:39:02.315Z,27.04
2022-08-09T18:41:36.967Z,27.02
2022-08-09T18:44:13.622Z,26.88
2022-08-09T18:46:47.335Z,26.84
2022-08-09T18:49:23.849Z,26.75
2022-08-09T18:51:55.106Z,26.66
2022-08-09T18:54:29.583Z,26.57
2022-08-09T18:57:05.461Z,26.48
2022-08-09T18:59:48.463Z,26.39
2022-08-09T19:02:19.683Z,26.32
2022-08-09T19:05:03.894Z,26.24
2022-08-09T19:07:39.782Z,26.19
2022-08-09T19:10:14.096Z,26.06
2022-08-09T19:13:00.361Z,25.95
2022-08-09T19:15:40.087Z,25.85
2022-08-09T19:18:17.058Z,25.78
2022-08-09T19:20:52.247Z,25.77
2022-08-09T19:24:33.463Z,25.63
2022-08-09T19:26:18.291Z,25.61
2022-08-09T19:28:54.762Z,25.50
2022-08-09T19:31:27.150Z,25.37
2022-08-09T19:33:56.887Z,25.30
2022-08-09T19:36:30.896Z,25.22
2022-08-09T19:39:05.483Z,25.20
2022-08-09T19:41:35.898Z,25.13
2022-08-09T19:44:08.366Z,25.07
2022-08-09T19:46:50.663Z,25.01
2022-08-09T19:50:07.060Z,24.82
2022-08-09T19:52:13.266Z,24.78
2022-08-09T19:54:43.973Z,24.76
2022-08-09T19:57:13.739Z,24.56
2022-08-09T20:00:05.417Z,24.49
2022-08-09T20:04:12.666Z,24.40
2022-08-09T20:05:29.693Z,24.32
2022-08-09T20:08:16.002Z,24.21
2022-08-09T20:10:56.040Z,24.20
2022-08-09T20:13:27.307Z,24.11
2022-08-09T20:16:33.876Z,24.04
2022-08-09T20:19:03.702Z,23.97
2022-08-09T20:21:55.260Z,23.84
2022-08-09T20:24:31.957Z,23.75
2022-08-09T20:27:07.898Z,23.69
2022-08-09T20:29:39.597Z,23.61
2022-08-09T20:32:29.220Z,23.55
2022-08-09T20:35:02.126Z,23.50
2022-08-09T20:38:19.766Z,23.40
2022-08-09T20:40:26.416Z,23.35
2022-08-09T20:42:59.779Z,23.31
2022-08-09T20:46:00.123Z,23.27
2022-08-09T20:48:22.814Z,23.21
2022-08-09T20:50:58.140Z,23.21
2022-08-09T20:53:36.564Z,23.08
2022-08-09T20:56:21.055Z,23.05
2022-08-09T20:58:54.515Z,23.02
2022-08-09T21:01:34.696Z,23.00
2022-08-09T21:05:54.686Z,22.96
2022-08-09T21:07:13.910Z,22.85
2022-08-09T21:09:56.617Z,22.84
2022-08-09T21:15:23.844Z,22.73
2022-08-09T21:18:11.713Z,22.66
2022-08-09T21:20:56.560Z,22.61
2022-08-09T21:23:47.544Z,22.58
2022-08-09T21:26:16.081Z,22.53
2022-08-09T21:28:55.818Z,22.46
2022-08-09T21:31:49.453Z,22.45
2022-08-09T21:34:28.640Z,22.42
2022-08-09T21:37:01.837Z,22.34
2022-08-09T21:39:42.012Z,22.31
2022-08-09T21:42:12.313Z,22.21
2022-08-09T21:44:42.906Z,22.16
2022-08-09T21:47:18.171Z,22.10
2022-08-09T21:49:49.579Z,22.03
2022-08-09T21:52:23.974Z,22.00
2022-08-09T21:55:03.801Z,21.95
2022-08-09T21:57:38.788Z,21.88
2022-08-09T22:00:32.378Z,21.77
2022-08-09T22:03:04.817Z,21.75
2022-08-09T22:05:41.609Z,21.68
2022-08-09T22:08:16.438Z,21.63
2022-08-09T22:11:50.291Z,21.57
2022-08-09T22:13:37.166Z,21.54
2022-08-09T22:16:09.288Z,21.41
2022-08-09T22:18:52.848Z,21.35
2022-08-09T22:21:27.347Z,21.17
2022-08-09T22:24:24.284Z,21.14
2022-08-09T22:26:55.112Z,21.14
2022-08-09T22:29:38.405Z,21.07
2022-08-09T22:32:29.752Z,21.05
2022-08-09T22:35:06.259Z,20.97
2022-08-09T22:37:40.289Z,20.94
2022-08-09T22:40:20.262Z,20.90
2022-08-09T22:42:50.213Z,20.84
2022-08-09T22:48:16.314Z,20.78
2022-08-09T22:48:19.124Z,20.71
2022-08-09T22:50:59.432Z,20.68
2022-08-09T22:53:33.285Z,20.58
2022-08-09T22:56:33.430Z,20.52
2022-08-09T22:59:05.964Z,20.47
2022-08-09T23:01:53.667Z,20.42
2022-08-09T23:04:25.557Z,20.37
2022-08-09T23:07:11.208Z,20.34
2022-08-09T23:09:43.794Z,20.25
2022-08-09T23:12:16.078Z,20.19
2022-08-09T23:14:45.780Z,20.14
2022-08-09T23:17:16.049Z,20.09
2022-08-09T23:20:06.522Z,20.06
2022-08-09T23:22:35.840Z,20.01
2022-08-09T23:25:05.976Z,20.01
2022-08-09T23:27:59.661Z,19.95
2022-08-09T23:30:27.942Z,19.90
2022-08-09T23:32:57.606Z,19.85
2022-08-09T23:35:27.494Z,19.80
2022-08-09T23:37:57.193Z,19.77
2022-08-09T23:40:26.886Z,19.76
2022-08-09T23:42:59.241Z,19.71
2022-08-09T23:45:37.531Z,19.63
2022-08-09T23:48:09.198Z,19.58
2022-08-09T23:50:39.087Z,19.53
2022-08-09T23:53:10.408Z,19.50
2022-08-09T23:55:49.566Z,19.48
2022-08-09T23:58:26.090Z,19.41
